sensor_id;sensor_type;location;lat;lon;timestamp;P1;durP1;ratioP1;P2;durP2;ratioP2
40757;SDS011;26462;47.384;19.218;2023-06-19T00:01:13;7.85;;;4.20;;
40757;SDS011;26462;47.384;19.218;2023-06-19T00:03:40;6.60;;;4.00;;
40757;SDS011;26462;47.384;19.218;2023-06-19T00:06:08;8.52;;;4.43;;
40757;SDS011;26462;47.384;19.218;2023-06-19T00:08:35;7.78;;;5.20;;
40757;SDS011;26462;47.384;19.218;2023-06-19T00:11:03;9.68;;;5.20;;
40757;SDS011;26462;47.384;19.218;2023-06-19T00:13:30;11.05;;;4.70;;
40757;SDS011;26462;47.384;19.218;2023-06-19T00:15:57;8.82;;;4.90;;
40757;SDS011;26462;47.384;19.218;2023-06-19T00:18:27;12.43;;;5.60;;
40757;SDS011;26462;47.384;19.218;2023-06-19T00:20:55;8.60;;;4.55;;
40757;SDS011;26462;47.384;19.218;2023-06-19T00:23:23;8.50;;;4.93;;
40757;SDS011;26462;47.384;19.218;2023-06-19T00:25:50;8.65;;;4.70;;
40757;SDS011;26462;47.384;19.218;2023-06-19T00:28:17;11.05;;;4.93;;
40757;SDS011;26462;47.384;19.218;2023-06-19T00:30:46;7.72;;;4.40;;
40757;SDS011;26462;47.384;19.218;2023-06-19T00:33:13;8.98;;;4.68;;
40757;SDS011;26462;47.384;19.218;2023-06-19T00:35:40;6.40;;;4.30;;
40757;SDS011;26462;47.384;19.218;2023-06-19T00:38:09;6.18;;;4.30;;
40757;SDS011;26462;47.384;19.218;2023-06-19T00:40:36;8.05;;;4.82;;
40757;SDS011;26462;47.384;19.218;2023-06-19T00:43:03;9.68;;;4.90;;
40757;SDS011;26462;47.384;19.218;2023-06-19T00:45:30;7.82;;;4.50;;
40757;SDS011;26462;47.384;19.218;2023-06-19T00:47:59;22.85;;;5.43;;
40757;SDS011;26462;47.384;19.218;2023-06-19T00:50:27;8.48;;;4.50;;
40757;SDS011;26462;47.384;19.218;2023-06-19T00:52:59;7.10;;;4.25;;
40757;SDS011;26462;47.384;19.218;2023-06-19T00:55:29;8.73;;;4.53;;
40757;SDS011;26462;47.384;19.218;2023-06-19T00:57:57;8.90;;;4.93;;
40757;SDS011;26462;47.384;19.218;2023-06-19T01:00:26;8.20;;;4.50;;
40757;SDS011;26462;47.384;19.218;2023-06-19T01:02:56;7.95;;;4.32;;
40757;SDS011;26462;47.384;19.218;2023-06-19T01:05:23;11.07;;;5.03;;
40757;SDS011;26462;47.384;19.218;2023-06-19T01:07:53;9.80;;;4.72;;
40757;SDS011;26462;47.384;19.218;2023-06-19T01:10:32;6.72;;;4.35;;
40757;SDS011;26462;47.384;19.218;2023-06-19T01:13:07;9.20;;;4.80;;
40757;SDS011;26462;47.384;19.218;2023-06-19T01:15:38;9.27;;;4.82;;
40757;SDS011;26462;47.384;19.218;2023-06-19T01:18:07;8.73;;;5.78;;
40757;SDS011;26462;47.384;19.218;2023-06-19T01:20:38;8.20;;;4.53;;
40757;SDS011;26462;47.384;19.218;2023-06-19T01:23:07;9.38;;;4.57;;
40757;SDS011;26462;47.384;19.218;2023-06-19T01:25:35;8.23;;;5.07;;
40757;SDS011;26462;47.384;19.218;2023-06-19T01:28:05;8.50;;;4.75;;
40757;SDS011;26462;47.384;19.218;2023-06-19T01:30:36;10.55;;;4.93;;
40757;SDS011;26462;47.384;19.218;2023-06-19T01:33:11;11.60;;;5.35;;
40757;SDS011;26462;47.384;19.218;2023-06-19T01:35:45;11.88;;;5.50;;
40757;SDS011;26462;47.384;19.218;2023-06-19T01:38:14;8.95;;;5.00;;
40757;SDS011;26462;47.384;19.218;2023-06-19T01:40:42;11.55;;;4.85;;
40757;SDS011;26462;47.384;19.218;2023-06-19T01:43:09;7.90;;;5.00;;
40757;SDS011;26462;47.384;19.218;2023-06-19T01:45:37;11.63;;;5.07;;
40757;SDS011;26462;47.384;19.218;2023-06-19T01:48:05;9.30;;;5.38;;
40757;SDS011;26462;47.384;19.218;2023-06-19T01:50:32;10.93;;;5.97;;
40757;SDS011;26462;47.384;19.218;2023-06-19T01:52:59;9.15;;;5.57;;
40757;SDS011;26462;47.384;19.218;2023-06-19T01:55:26;9.80;;;5.85;;
40757;SDS011;26462;47.384;19.218;2023-06-19T01:57:53;11.93;;;5.93;;
40757;SDS011;26462;47.384;19.218;2023-06-19T02:00:20;12.80;;;5.72;;
40757;SDS011;26462;47.384;19.218;2023-06-19T02:02:48;8.45;;;5.20;;
40757;SDS011;26462;47.384;19.218;2023-06-19T02:05:16;10.05;;;5.65;;
40757;SDS011;26462;47.384;19.218;2023-06-19T02:07:43;10.27;;;5.47;;
40757;SDS011;26462;47.384;19.218;2023-06-19T02:10:10;8.75;;;5.88;;
40757;SDS011;26462;47.384;19.218;2023-06-19T02:12:37;8.25;;;5.28;;
40757;SDS011;26462;47.384;19.218;2023-06-19T02:15:05;16.50;;;6.97;;
40757;SDS011;26462;47.384;19.218;2023-06-19T02:17:32;11.35;;;6.20;;
40757;SDS011;26462;47.384;19.218;2023-06-19T02:20:02;8.95;;;5.72;;
40757;SDS011;26462;47.384;19.218;2023-06-19T02:22:32;8.10;;;5.20;;
40757;SDS011;26462;47.384;19.218;2023-06-19T02:24:59;12.85;;;6.63;;
40757;SDS011;26462;47.384;19.218;2023-06-19T02:27:26;7.45;;;4.90;;
40757;SDS011;26462;47.384;19.218;2023-06-19T02:29:53;12.15;;;5.88;;
40757;SDS011;26462;47.384;19.218;2023-06-19T02:32:20;9.65;;;6.80;;
40757;SDS011;26462;47.384;19.218;2023-06-19T02:34:48;8.20;;;5.30;;
40757;SDS011;26462;47.384;19.218;2023-06-19T02:37:15;9.80;;;5.80;;
40757;SDS011;26462;47.384;19.218;2023-06-19T02:39:42;11.13;;;6.25;;
40757;SDS011;26462;47.384;19.218;2023-06-19T02:42:09;11.13;;;6.80;;
40757;SDS011;26462;47.384;19.218;2023-06-19T02:44:37;10.48;;;6.05;;
40757;SDS011;26462;47.384;19.218;2023-06-19T02:47:04;8.65;;;5.82;;
40757;SDS011;26462;47.384;19.218;2023-06-19T02:49:31;9.45;;;5.22;;
40757;SDS011;26462;47.384;19.218;2023-06-19T02:51:58;9.50;;;5.88;;
40757;SDS011;26462;47.384;19.218;2023-06-19T02:54:25;10.63;;;6.20;;
40757;SDS011;26462;47.384;19.218;2023-06-19T02:56:53;10.63;;;5.68;;
40757;SDS011;26462;47.384;19.218;2023-06-19T02:59:20;10.55;;;5.55;;
40757;SDS011;26462;47.384;19.218;2023-06-19T03:01:49;10.77;;;5.40;;
40757;SDS011;26462;47.384;19.218;2023-06-19T03:04:16;7.63;;;5.15;;
40757;SDS011;26462;47.384;19.218;2023-06-19T03:06:44;8.65;;;4.90;;
40757;SDS011;26462;47.384;19.218;2023-06-19T03:09:11;8.23;;;5.05;;
40757;SDS011;26462;47.384;19.218;2023-06-19T03:11:42;9.45;;;6.00;;
40757;SDS011;26462;47.384;19.218;2023-06-19T03:14:09;8.57;;;5.25;;
40757;SDS011;26462;47.384;19.218;2023-06-19T03:16:37;10.07;;;5.65;;
40757;SDS011;26462;47.384;19.218;2023-06-19T03:19:04;8.75;;;5.03;;
40757;SDS011;26462;47.384;19.218;2023-06-19T03:21:33;10.18;;;5.30;;
40757;SDS011;26462;47.384;19.218;2023-06-19T03:24:02;9.52;;;5.45;;
40757;SDS011;26462;47.384;19.218;2023-06-19T03:26:30;11.77;;;6.00;;
40757;SDS011;26462;47.384;19.218;2023-06-19T03:29:00;10.70;;;6.18;;
40757;SDS011;26462;47.384;19.218;2023-06-19T03:31:36;8.60;;;5.70;;
40757;SDS011;26462;47.384;19.218;2023-06-19T03:34:07;9.98;;;5.80;;
40757;SDS011;26462;47.384;19.218;2023-06-19T03:36:36;12.75;;;6.00;;
40757;SDS011;26462;47.384;19.218;2023-06-19T03:39:07;12.77;;;6.25;;
40757;SDS011;26462;47.384;19.218;2023-06-19T03:41:35;10.00;;;5.32;;
40757;SDS011;26462;47.384;19.218;2023-06-19T03:44:02;9.23;;;5.53;;
40757;SDS011;26462;47.384;19.218;2023-06-19T03:46:30;8.75;;;4.97;;
40757;SDS011;26462;47.384;19.218;2023-06-19T03:48:57;9.90;;;5.88;;
40757;SDS011;26462;47.384;19.218;2023-06-19T03:51:27;11.93;;;6.50;;
40757;SDS011;26462;47.384;19.218;2023-06-19T03:53:55;12.38;;;5.80;;
40757;SDS011;26462;47.384;19.218;2023-06-19T03:56:22;8.15;;;5.85;;
40757;SDS011;26462;47.384;19.218;2023-06-19T03:58:50;11.52;;;5.38;;
40757;SDS011;26462;47.384;19.218;2023-06-19T04:01:17;10.30;;;5.57;;
40757;SDS011;26462;47.384;19.218;2023-06-19T04:03:47;9.80;;;5.47;;
40757;SDS011;26462;47.384;19.218;2023-06-19T04:06:14;8.13;;;5.00;;
40757;SDS011;26462;47.384;19.218;2023-06-19T04:08:42;8.85;;;5.03;;
40757;SDS011;26462;47.384;19.218;2023-06-19T04:11:11;9.70;;;5.03;;
40757;SDS011;26462;47.384;19.218;2023-06-19T04:13:38;8.93;;;5.03;;
40757;SDS011;26462;47.384;19.218;2023-06-19T04:16:06;8.45;;;5.22;;
40757;SDS011;26462;47.384;19.218;2023-06-19T04:18:33;7.35;;;4.45;;
40757;SDS011;26462;47.384;19.218;2023-06-19T04:21:03;6.80;;;4.43;;
40757;SDS011;26462;47.384;19.218;2023-06-19T04:23:31;7.22;;;4.93;;
40757;SDS011;26462;47.384;19.218;2023-06-19T04:25:58;9.00;;;5.18;;
40757;SDS011;26462;47.384;19.218;2023-06-19T04:28:25;9.48;;;5.25;;
40757;SDS011;26462;47.384;19.218;2023-06-19T04:30:52;9.65;;;5.55;;
40757;SDS011;26462;47.384;19.218;2023-06-19T04:33:27;8.70;;;5.13;;
40757;SDS011;26462;47.384;19.218;2023-06-19T04:35:56;7.97;;;4.97;;
40757;SDS011;26462;47.384;19.218;2023-06-19T04:38:23;7.95;;;4.75;;
40757;SDS011;26462;47.384;19.218;2023-06-19T04:40:51;7.80;;;4.65;;
40757;SDS011;26462;47.384;19.218;2023-06-19T04:43:18;10.07;;;5.10;;
40757;SDS011;26462;47.384;19.218;2023-06-19T04:45:45;7.38;;;5.03;;
40757;SDS011;26462;47.384;19.218;2023-06-19T04:48:13;7.05;;;4.47;;
40757;SDS011;26462;47.384;19.218;2023-06-19T04:50:40;9.10;;;4.03;;
40757;SDS011;26462;47.384;19.218;2023-06-19T04:53:07;10.57;;;5.03;;
40757;SDS011;26462;47.384;19.218;2023-06-19T04:55:34;9.43;;;4.97;;
40757;SDS011;26462;47.384;19.218;2023-06-19T04:58:01;9.00;;;4.82;;
40757;SDS011;26462;47.384;19.218;2023-06-19T05:00:28;9.68;;;5.28;;
40757;SDS011;26462;47.384;19.218;2023-06-19T05:02:55;8.40;;;5.75;;
40757;SDS011;26462;47.384;19.218;2023-06-19T05:05:27;8.00;;;5.20;;
40757;SDS011;26462;47.384;19.218;2023-06-19T05:07:54;8.68;;;5.57;;
40757;SDS011;26462;47.384;19.218;2023-06-19T05:10:21;9.15;;;5.70;;
40757;SDS011;26462;47.384;19.218;2023-06-19T05:12:49;7.05;;;5.15;;
40757;SDS011;26462;47.384;19.218;2023-06-19T05:15:16;10.98;;;5.80;;
40757;SDS011;26462;47.384;19.218;2023-06-19T05:17:43;10.25;;;5.57;;
40757;SDS011;26462;47.384;19.218;2023-06-19T05:20:13;8.88;;;5.63;;
40757;SDS011;26462;47.384;19.218;2023-06-19T05:22:40;6.07;;;4.28;;
40757;SDS011;26462;47.384;19.218;2023-06-19T05:25:07;8.63;;;5.90;;
40757;SDS011;26462;47.384;19.218;2023-06-19T05:27:35;9.43;;;5.88;;
40757;SDS011;26462;47.384;19.218;2023-06-19T05:30:02;10.02;;;6.40;;
40757;SDS011;26462;47.384;19.218;2023-06-19T05:32:31;9.13;;;5.78;;
40757;SDS011;26462;47.384;19.218;2023-06-19T05:34:58;11.82;;;7.45;;
40757;SDS011;26462;47.384;19.218;2023-06-19T05:37:25;10.27;;;5.78;;
40757;SDS011;26462;47.384;19.218;2023-06-19T05:39:53;13.18;;;7.22;;
40757;SDS011;26462;47.384;19.218;2023-06-19T05:42:21;10.82;;;7.47;;
40757;SDS011;26462;47.384;19.218;2023-06-19T05:44:48;11.38;;;7.05;;
40757;SDS011;26462;47.384;19.218;2023-06-19T05:47:20;11.57;;;7.88;;
40757;SDS011;26462;47.384;19.218;2023-06-19T05:49:48;11.30;;;6.68;;
40757;SDS011;26462;47.384;19.218;2023-06-19T05:52:15;9.20;;;6.32;;
40757;SDS011;26462;47.384;19.218;2023-06-19T05:54:42;10.32;;;7.32;;
40757;SDS011;26462;47.384;19.218;2023-06-19T05:57:10;10.15;;;6.95;;
40757;SDS011;26462;47.384;19.218;2023-06-19T05:59:38;11.38;;;8.00;;
40757;SDS011;26462;47.384;19.218;2023-06-19T06:02:05;11.57;;;7.32;;
40757;SDS011;26462;47.384;19.218;2023-06-19T06:04:33;10.25;;;6.65;;
40757;SDS011;26462;47.384;19.218;2023-06-19T06:07:01;9.15;;;6.60;;
40757;SDS011;26462;47.384;19.218;2023-06-19T06:09:29;12.48;;;7.20;;
40757;SDS011;26462;47.384;19.218;2023-06-19T06:11:56;10.02;;;6.93;;
40757;SDS011;26462;47.384;19.218;2023-06-19T06:14:23;11.10;;;7.32;;
40757;SDS011;26462;47.384;19.218;2023-06-19T06:16:50;10.63;;;7.20;;
40757;SDS011;26462;47.384;19.218;2023-06-19T06:19:19;10.85;;;7.05;;
40757;SDS011;26462;47.384;19.218;2023-06-19T06:21:49;11.05;;;6.55;;
40757;SDS011;26462;47.384;19.218;2023-06-19T06:24:16;10.45;;;6.50;;
40757;SDS011;26462;47.384;19.218;2023-06-19T06:26:44;9.85;;;6.63;;
40757;SDS011;26462;47.384;19.218;2023-06-19T06:29:11;10.65;;;6.70;;
40757;SDS011;26462;47.384;19.218;2023-06-19T06:31:38;8.02;;;5.47;;
40757;SDS011;26462;47.384;19.218;2023-06-19T06:34:07;8.63;;;5.97;;
40757;SDS011;26462;47.384;19.218;2023-06-19T06:36:35;8.85;;;5.60;;
40757;SDS011;26462;47.384;19.218;2023-06-19T06:39:09;9.23;;;5.63;;
40757;SDS011;26462;47.384;19.218;2023-06-19T06:41:37;8.60;;;5.18;;
40757;SDS011;26462;47.384;19.218;2023-06-19T06:44:04;5.85;;;4.53;;
40757;SDS011;26462;47.384;19.218;2023-06-19T06:46:32;7.57;;;5.22;;
40757;SDS011;26462;47.384;19.218;2023-06-19T06:48:59;8.95;;;4.97;;
40757;SDS011;26462;47.384;19.218;2023-06-19T06:51:26;7.10;;;4.65;;
40757;SDS011;26462;47.384;19.218;2023-06-19T06:53:56;6.03;;;4.35;;
40757;SDS011;26462;47.384;19.218;2023-06-19T06:56:23;6.43;;;3.67;;
40757;SDS011;26462;47.384;19.218;2023-06-19T06:58:50;7.47;;;4.60;;
40757;SDS011;26462;47.384;19.218;2023-06-19T07:01:17;5.60;;;4.28;;
40757;SDS011;26462;47.384;19.218;2023-06-19T07:03:50;6.75;;;4.18;;
40757;SDS011;26462;47.384;19.218;2023-06-19T07:06:17;6.18;;;4.65;;
40757;SDS011;26462;47.384;19.218;2023-06-19T07:08:44;7.18;;;4.60;;
40757;SDS011;26462;47.384;19.218;2023-06-19T07:11:14;10.13;;;4.80;;
40757;SDS011;26462;47.384;19.218;2023-06-19T07:13:41;7.63;;;4.72;;
40757;SDS011;26462;47.384;19.218;2023-06-19T07:16:08;9.20;;;4.65;;
40757;SDS011;26462;47.384;19.218;2023-06-19T07:18:35;5.97;;;4.40;;
40757;SDS011;26462;47.384;19.218;2023-06-19T07:21:05;5.88;;;3.70;;
40757;SDS011;26462;47.384;19.218;2023-06-19T07:23:39;7.10;;;4.95;;
40757;SDS011;26462;47.384;19.218;2023-06-19T07:26:08;10.25;;;4.10;;
40757;SDS011;26462;47.384;19.218;2023-06-19T07:28:36;9.00;;;3.90;;
40757;SDS011;26462;47.384;19.218;2023-06-19T07:31:03;5.57;;;3.67;;
40757;SDS011;26462;47.384;19.218;2023-06-19T07:33:30;6.22;;;4.13;;
40757;SDS011;26462;47.384;19.218;2023-06-19T07:35:58;8.45;;;4.30;;
40757;SDS011;26462;47.384;19.218;2023-06-19T07:38:25;7.97;;;4.03;;
40757;SDS011;26462;47.384;19.218;2023-06-19T07:40:53;7.60;;;4.25;;
40757;SDS011;26462;47.384;19.218;2023-06-19T07:43:20;5.30;;;3.60;;
40757;SDS011;26462;47.384;19.218;2023-06-19T07:45:49;5.70;;;3.90;;
40757;SDS011;26462;47.384;19.218;2023-06-19T07:48:16;4.00;;;3.40;;
40757;SDS011;26462;47.384;19.218;2023-06-19T07:50:43;5.50;;;3.50;;
40757;SDS011;26462;47.384;19.218;2023-06-19T07:53:10;4.13;;;3.60;;
40757;SDS011;26462;47.384;19.218;2023-06-19T07:55:37;5.68;;;3.03;;
40757;SDS011;26462;47.384;19.218;2023-06-19T07:58:04;5.00;;;3.53;;
40757;SDS011;26462;47.384;19.218;2023-06-19T08:00:31;5.32;;;4.18;;
40757;SDS011;26462;47.384;19.218;2023-06-19T08:02:59;5.88;;;4.20;;
40757;SDS011;26462;47.384;19.218;2023-06-19T08:05:26;7.40;;;3.33;;
40757;SDS011;26462;47.384;19.218;2023-06-19T08:07:53;5.60;;;3.70;;
40757;SDS011;26462;47.384;19.218;2023-06-19T08:10:20;5.25;;;4.32;;
40757;SDS011;26462;47.384;19.218;2023-06-19T08:12:47;7.20;;;4.70;;
40757;SDS011;26462;47.384;19.218;2023-06-19T08:15:17;6.80;;;4.07;;
40757;SDS011;26462;47.384;19.218;2023-06-19T08:17:44;4.60;;;4.10;;
40757;SDS011;26462;47.384;19.218;2023-06-19T08:20:13;6.38;;;3.92;;
40757;SDS011;26462;47.384;19.218;2023-06-19T08:22:40;5.22;;;3.22;;
40757;SDS011;26462;47.384;19.218;2023-06-19T08:25:07;5.13;;;3.70;;
40757;SDS011;26462;47.384;19.218;2023-06-19T08:27:35;6.35;;;3.90;;
40757;SDS011;26462;47.384;19.218;2023-06-19T08:30:02;4.53;;;3.55;;
40757;SDS011;26462;47.384;19.218;2023-06-19T08:32:29;4.85;;;3.95;;
40757;SDS011;26462;47.384;19.218;2023-06-19T08:34:57;6.95;;;4.28;;
40757;SDS011;26462;47.384;19.218;2023-06-19T08:37:24;4.90;;;3.97;;
40757;SDS011;26462;47.384;19.218;2023-06-19T08:39:51;5.15;;;4.00;;
40757;SDS011;26462;47.384;19.218;2023-06-19T08:42:18;5.18;;;4.05;;
40757;SDS011;26462;47.384;19.218;2023-06-19T08:44:46;5.82;;;3.60;;
40757;SDS011;26462;47.384;19.218;2023-06-19T08:47:13;5.53;;;3.97;;
40757;SDS011;26462;47.384;19.218;2023-06-19T08:49:40;5.18;;;4.18;;
40757;SDS011;26462;47.384;19.218;2023-06-19T08:52:07;7.63;;;4.20;;
40757;SDS011;26462;47.384;19.218;2023-06-19T08:54:35;6.03;;;4.15;;
40757;SDS011;26462;47.384;19.218;2023-06-19T08:57:11;5.55;;;3.72;;
40757;SDS011;26462;47.384;19.218;2023-06-19T08:59:39;5.35;;;4.30;;
40757;SDS011;26462;47.384;19.218;2023-06-19T09:02:07;4.68;;;3.72;;
40757;SDS011;26462;47.384;19.218;2023-06-19T09:04:34;6.65;;;4.30;;
40757;SDS011;26462;47.384;19.218;2023-06-19T09:07:02;7.45;;;3.65;;
40757;SDS011;26462;47.384;19.218;2023-06-19T09:09:44;4.93;;;3.53;;
40757;SDS011;26462;47.384;19.218;2023-06-19T09:12:15;5.78;;;4.10;;
40757;SDS011;26462;47.384;19.218;2023-06-19T09:14:55;5.15;;;3.95;;
40757;SDS011;26462;47.384;19.218;2023-06-19T09:17:22;5.90;;;3.85;;
40757;SDS011;26462;47.384;19.218;2023-06-19T09:19:53;3.88;;;3.45;;
40757;SDS011;26462;47.384;19.218;2023-06-19T09:22:23;4.28;;;3.20;;
40757;SDS011;26462;47.384;19.218;2023-06-19T09:25:01;3.88;;;3.05;;
40757;SDS011;26462;47.384;19.218;2023-06-19T09:27:33;6.03;;;4.27;;
40757;SDS011;26462;47.384;19.218;2023-06-19T09:30:00;4.53;;;3.47;;
40757;SDS011;26462;47.384;19.218;2023-06-19T09:32:28;5.07;;;3.05;;
40757;SDS011;26462;47.384;19.218;2023-06-19T09:34:56;4.35;;;3.03;;
40757;SDS011;26462;47.384;19.218;2023-06-19T09:37:27;5.20;;;3.33;;
40757;SDS011;26462;47.384;19.218;2023-06-19T09:39:57;4.40;;;3.60;;
40757;SDS011;26462;47.384;19.218;2023-06-19T09:42:32;4.30;;;3.40;;
40757;SDS011;26462;47.384;19.218;2023-06-19T09:45:10;5.25;;;3.50;;
40757;SDS011;26462;47.384;19.218;2023-06-19T09:47:41;3.92;;;3.10;;
40757;SDS011;26462;47.384;19.218;2023-06-19T09:50:14;5.88;;;3.22;;
40757;SDS011;26462;47.384;19.218;2023-06-19T09:52:46;4.32;;;3.35;;
40757;SDS011;26462;47.384;19.218;2023-06-19T09:55:18;3.95;;;3.20;;
40757;SDS011;26462;47.384;19.218;2023-06-19T09:57:46;4.25;;;3.20;;
40757;SDS011;26462;47.384;19.218;2023-06-19T10:00:15;4.15;;;3.00;;
40757;SDS011;26462;47.384;19.218;2023-06-19T10:02:48;5.15;;;3.25;;
40757;SDS011;26462;47.384;19.218;2023-06-19T10:05:16;4.28;;;2.95;;
40757;SDS011;26462;47.384;19.218;2023-06-19T10:07:54;4.25;;;3.40;;
40757;SDS011;26462;47.384;19.218;2023-06-19T10:10:26;3.80;;;3.20;;
40757;SDS011;26462;47.384;19.218;2023-06-19T10:13:00;3.85;;;3.30;;
40757;SDS011;26462;47.384;19.218;2023-06-19T10:15:42;4.88;;;3.35;;
40757;SDS011;26462;47.384;19.218;2023-06-19T10:18:15;4.40;;;3.53;;
40757;SDS011;26462;47.384;19.218;2023-06-19T10:23:19;4.45;;;2.95;;
40757;SDS011;26462;47.384;19.218;2023-06-19T10:25:55;4.82;;;3.25;;
40757;SDS011;26462;47.384;19.218;2023-06-19T10:28:31;4.03;;;3.15;;
40757;SDS011;26462;47.384;19.218;2023-06-19T10:31:03;4.78;;;3.40;;
40757;SDS011;26462;47.384;19.218;2023-06-19T10:33:35;3.97;;;2.75;;
40757;SDS011;26462;47.384;19.218;2023-06-19T10:36:22;4.82;;;3.20;;
40757;SDS011;26462;47.384;19.218;2023-06-19T10:38:52;4.88;;;2.92;;
40757;SDS011;26462;47.384;19.218;2023-06-19T10:41:21;4.50;;;3.08;;
40757;SDS011;26462;47.384;19.218;2023-06-19T10:43:58;5.93;;;3.00;;
40757;SDS011;26462;47.384;19.218;2023-06-19T10:46:39;4.25;;;3.20;;
40757;SDS011;26462;47.384;19.218;2023-06-19T10:49:07;4.82;;;2.80;;
40757;SDS011;26462;47.384;19.218;2023-06-19T10:51:37;4.65;;;3.55;;
40757;SDS011;26462;47.384;19.218;2023-06-19T10:54:05;3.97;;;2.70;;
40757;SDS011;26462;47.384;19.218;2023-06-19T10:56:33;4.45;;;3.20;;
40757;SDS011;26462;47.384;19.218;2023-06-19T10:59:02;4.47;;;3.78;;
40757;SDS011;26462;47.384;19.218;2023-06-19T11:04:08;4.35;;;3.33;;
40757;SDS011;26462;47.384;19.218;2023-06-19T11:06:36;4.40;;;3.10;;
40757;SDS011;26462;47.384;19.218;2023-06-19T11:09:06;4.13;;;3.15;;
40757;SDS011;26462;47.384;19.218;2023-06-19T11:11:35;3.50;;;3.10;;
40757;SDS011;26462;47.384;19.218;2023-06-19T11:14:09;3.72;;;3.10;;
40757;SDS011;26462;47.384;19.218;2023-06-19T11:16:40;4.53;;;2.92;;
40757;SDS011;26462;47.384;19.218;2023-06-19T11:19:13;5.03;;;3.72;;
40757;SDS011;26462;47.384;19.218;2023-06-19T11:21:44;4.57;;;3.33;;
40757;SDS011;26462;47.384;19.218;2023-06-19T11:24:15;4.30;;;3.00;;
40757;SDS011;26462;47.384;19.218;2023-06-19T11:26:44;4.95;;;3.40;;
40757;SDS011;26462;47.384;19.218;2023-06-19T11:29:16;8.60;;;3.83;;
40757;SDS011;26462;47.384;19.218;2023-06-19T11:31:45;5.55;;;3.80;;
40757;SDS011;26462;47.384;19.218;2023-06-19T11:34:14;4.88;;;3.58;;
40757;SDS011;26462;47.384;19.218;2023-06-19T11:36:42;4.47;;;3.33;;
40757;SDS011;26462;47.384;19.218;2023-06-19T11:39:10;6.00;;;3.58;;
40757;SDS011;26462;47.384;19.218;2023-06-19T11:41:40;4.13;;;3.38;;
40757;SDS011;26462;47.384;19.218;2023-06-19T11:44:11;5.38;;;3.47;;
40757;SDS011;26462;47.384;19.218;2023-06-19T11:46:38;5.13;;;3.70;;
40757;SDS011;26462;47.384;19.218;2023-06-19T11:49:09;4.85;;;3.88;;
40757;SDS011;26462;47.384;19.218;2023-06-19T11:51:40;5.30;;;3.72;;
40757;SDS011;26462;47.384;19.218;2023-06-19T11:54:09;4.30;;;3.80;;
40757;SDS011;26462;47.384;19.218;2023-06-19T11:56:38;4.35;;;3.20;;
40757;SDS011;26462;47.384;19.218;2023-06-19T11:59:06;4.90;;;3.40;;
40757;SDS011;26462;47.384;19.218;2023-06-19T12:01:34;5.15;;;3.67;;
40757;SDS011;26462;47.384;19.218;2023-06-19T12:04:03;4.07;;;3.50;;
40757;SDS011;26462;47.384;19.218;2023-06-19T12:06:30;6.70;;;3.65;;
40757;SDS011;26462;47.384;19.218;2023-06-19T12:08:58;6.18;;;3.28;;
40757;SDS011;26462;47.384;19.218;2023-06-19T12:11:25;5.47;;;3.75;;
40757;SDS011;26462;47.384;19.218;2023-06-19T12:13:52;3.83;;;3.30;;
40757;SDS011;26462;47.384;19.218;2023-06-19T12:16:20;4.25;;;3.40;;
40757;SDS011;26462;47.384;19.218;2023-06-19T12:18:47;5.13;;;4.25;;
40757;SDS011;26462;47.384;19.218;2023-06-19T12:21:14;4.32;;;3.60;;
40757;SDS011;26462;47.384;19.218;2023-06-19T12:23:59;4.80;;;3.33;;
40757;SDS011;26462;47.384;19.218;2023-06-19T12:26:27;5.72;;;3.22;;
40757;SDS011;26462;47.384;19.218;2023-06-19T12:28:54;3.83;;;3.40;;
40757;SDS011;26462;47.384;19.218;2023-06-19T12:31:21;4.30;;;3.55;;
40757;SDS011;26462;47.384;19.218;2023-06-19T12:33:48;8.88;;;3.95;;
40757;SDS011;26462;47.384;19.218;2023-06-19T12:36:15;5.07;;;3.50;;
40757;SDS011;26462;47.384;19.218;2023-06-19T12:38:42;3.83;;;3.22;;
40757;SDS011;26462;47.384;19.218;2023-06-19T12:41:11;6.85;;;3.50;;
40757;SDS011;26462;47.384;19.218;2023-06-19T12:43:38;4.75;;;3.25;;
40757;SDS011;26462;47.384;19.218;2023-06-19T12:46:05;5.03;;;3.70;;
40757;SDS011;26462;47.384;19.218;2023-06-19T12:48:32;6.30;;;3.40;;
40757;SDS011;26462;47.384;19.218;2023-06-19T12:51:00;5.70;;;3.30;;
40757;SDS011;26462;47.384;19.218;2023-06-19T12:53:27;5.15;;;4.28;;
40757;SDS011;26462;47.384;19.218;2023-06-19T12:55:59;6.75;;;3.58;;
40757;SDS011;26462;47.384;19.218;2023-06-19T12:58:33;7.22;;;3.58;;
40757;SDS011;26462;47.384;19.218;2023-06-19T13:01:00;3.88;;;3.17;;
40757;SDS011;26462;47.384;19.218;2023-06-19T13:03:27;5.30;;;3.35;;
40757;SDS011;26462;47.384;19.218;2023-06-19T13:05:54;3.95;;;3.30;;
40757;SDS011;26462;47.384;19.218;2023-06-19T13:08:22;4.03;;;3.17;;
40757;SDS011;26462;47.384;19.218;2023-06-19T13:10:49;5.43;;;4.35;;
40757;SDS011;26462;47.384;19.218;2023-06-19T13:13:16;4.15;;;3.75;;
40757;SDS011;26462;47.384;19.218;2023-06-19T13:15:43;5.00;;;4.03;;
40757;SDS011;26462;47.384;19.218;2023-06-19T13:18:11;4.30;;;3.80;;
40757;SDS011;26462;47.384;19.218;2023-06-19T13:20:38;5.63;;;3.53;;
40757;SDS011;26462;47.384;19.218;2023-06-19T13:23:05;6.32;;;3.78;;
40757;SDS011;26462;47.384;19.218;2023-06-19T13:25:33;4.10;;;3.40;;
40757;SDS011;26462;47.384;19.218;2023-06-19T13:28:00;4.45;;;3.42;;
40757;SDS011;26462;47.384;19.218;2023-06-19T13:30:27;5.25;;;3.53;;
40757;SDS011;26462;47.384;19.218;2023-06-19T13:32:55;4.78;;;3.53;;
40757;SDS011;26462;47.384;19.218;2023-06-19T13:35:23;3.85;;;3.40;;
40757;SDS011;26462;47.384;19.218;2023-06-19T13:37:50;3.95;;;3.47;;
40757;SDS011;26462;47.384;19.218;2023-06-19T13:40:17;4.30;;;3.85;;
40757;SDS011;26462;47.384;19.218;2023-06-19T13:42:44;5.13;;;3.80;;
40757;SDS011;26462;47.384;19.218;2023-06-19T13:45:11;6.82;;;4.00;;
40757;SDS011;26462;47.384;19.218;2023-06-19T13:47:38;7.38;;;5.15;;
40757;SDS011;26462;47.384;19.218;2023-06-19T13:50:06;4.32;;;3.40;;
40757;SDS011;26462;47.384;19.218;2023-06-19T13:52:33;5.50;;;4.00;;
40757;SDS011;26462;47.384;19.218;2023-06-19T13:55:01;5.82;;;3.10;;
40757;SDS011;26462;47.384;19.218;2023-06-19T13:57:28;4.40;;;3.55;;
40757;SDS011;26462;47.384;19.218;2023-06-19T13:59:57;5.45;;;3.35;;
40757;SDS011;26462;47.384;19.218;2023-06-19T14:02:24;4.93;;;3.63;;
40757;SDS011;26462;47.384;19.218;2023-06-19T14:04:51;5.47;;;3.78;;
40757;SDS011;26462;47.384;19.218;2023-06-19T14:07:19;4.75;;;3.75;;
40757;SDS011;26462;47.384;19.218;2023-06-19T14:09:48;5.60;;;3.78;;
40757;SDS011;26462;47.384;19.218;2023-06-19T14:12:15;4.60;;;3.75;;
40757;SDS011;26462;47.384;19.218;2023-06-19T14:14:42;5.60;;;4.10;;
40757;SDS011;26462;47.384;19.218;2023-06-19T14:17:09;5.10;;;3.83;;
40757;SDS011;26462;47.384;19.218;2023-06-19T14:19:37;6.03;;;4.05;;
40757;SDS011;26462;47.384;19.218;2023-06-19T14:22:04;5.18;;;3.78;;
40757;SDS011;26462;47.384;19.218;2023-06-19T14:24:34;4.95;;;3.47;;
40757;SDS011;26462;47.384;19.218;2023-06-19T14:27:01;6.05;;;3.97;;
40757;SDS011;26462;47.384;19.218;2023-06-19T14:29:28;7.07;;;3.85;;
40757;SDS011;26462;47.384;19.218;2023-06-19T14:31:55;6.20;;;3.47;;
40757;SDS011;26462;47.384;19.218;2023-06-19T14:34:22;7.50;;;3.85;;
40757;SDS011;26462;47.384;19.218;2023-06-19T14:36:49;5.75;;;3.90;;
40757;SDS011;26462;47.384;19.218;2023-06-19T14:39:17;6.10;;;4.32;;
40757;SDS011;26462;47.384;19.218;2023-06-19T14:41:44;5.32;;;3.40;;
40757;SDS011;26462;47.384;19.218;2023-06-19T14:44:11;6.65;;;4.30;;
40757;SDS011;26462;47.384;19.218;2023-06-19T14:46:38;5.13;;;4.03;;